createdAt,value
2019-02-14T00:02:10.772Z,27.83
2019-02-14T00:08:15.061Z,24.77
2019-02-14T00:14:19.629Z,24.43
2019-02-14T00:20:23.836Z,25.67
2019-02-14T00:26:28.043Z,24.00
2019-02-14T00:32:32.354Z,23.63
2019-02-14T00:38:36.572Z,25.23
2019-02-14T00:44:40.775Z,24.37
2019-02-14T00:50:45.068Z,22.63
2019-02-14T00:56:49.278Z,22.80
2019-02-14T01:02:53.691Z,22.67
2019-02-14T01:08:57.952Z,28.07
2019-02-14T01:15:02.229Z,25.73
2019-02-14T01:21:06.411Z,38.30
2019-02-14T01:27:10.689Z,26.07
2019-02-14T01:33:14.982Z,22.07
2019-02-14T01:39:19.323Z,22.40
2019-02-14T01:45:23.539Z,22.40
2019-02-14T01:51:27.820Z,20.67
2019-02-14T01:57:32.088Z,22.20
2019-02-14T02:03:36.383Z,21.83
2019-02-14T02:09:40.590Z,23.13
2019-02-14T02:15:44.837Z,23.27
2019-02-14T02:21:49.126Z,27.30
2019-02-14T02:27:53.492Z,22.50
2019-02-14T02:33:57.791Z,23.10
2019-02-14T02:40:01.991Z,22.97
2019-02-14T02:46:06.190Z,22.37
2019-02-14T02:52:10.455Z,21.97
2019-02-14T02:58:14.655Z,19.27
2019-02-14T03:04:18.859Z,19.70
2019-02-14T03:10:23.070Z,20.30
2019-02-14T03:16:27.343Z,18.37
2019-02-14T03:22:31.605Z,17.93
2019-02-14T03:28:35.816Z,20.07
2019-02-14T03:34:40.105Z,19.57
2019-02-14T03:40:44.327Z,19.67
2019-02-14T03:46:48.588Z,18.97
2019-02-14T03:52:52.791Z,18.77
2019-02-14T03:58:57.285Z,19.27
2019-02-14T04:05:01.505Z,19.33
2019-02-14T04:11:05.781Z,19.60
2019-02-14T04:17:09.981Z,20.10
2019-02-14T04:23:14.309Z,20.57
2019-02-14T04:29:18.595Z,20.63
2019-02-14T04:35:22.851Z,21.07
2019-02-14T04:41:27.032Z,20.20
2019-02-14T04:47:31.405Z,21.50
2019-02-14T04:53:35.594Z,20.47
2019-02-14T04:59:40.101Z,21.40
2019-02-14T05:05:44.303Z,21.37
2019-02-14T05:11:48.603Z,20.97
2019-02-14T05:17:52.818Z,20.80
2019-02-14T05:23:57.590Z,20.73
2019-02-14T05:30:01.848Z,19.77
2019-02-14T05:36:06.046Z,19.90
2019-02-14T05:42:10.422Z,22.97
2019-02-14T05:48:14.641Z,22.43
2019-02-14T05:54:19.000Z,22.37
2019-02-14T06:00:23.313Z,27.67
2019-02-14T06:06:27.599Z,23.20
2019-02-14T06:12:31.876Z,22.70
2019-02-14T06:18:36.084Z,24.67
2019-02-14T06:24:40.351Z,36.13
2019-02-14T06:30:44.644Z,30.70
2019-02-14T06:36:48.925Z,30.03
2019-02-14T06:42:53.287Z,23.73
2019-02-14T06:48:57.476Z,24.07
2019-02-14T06:55:04.466Z,24.77
2019-02-14T07:01:08.667Z,23.40
2019-02-14T07:07:18.666Z,26.30
2019-02-14T07:13:19.247Z,25.00
2019-02-14T07:19:23.476Z,26.80
2019-02-14T07:25:27.671Z,26.23
2019-02-14T07:31:31.839Z,26.23
2019-02-14T07:37:36.139Z,25.03
2019-02-14T07:43:40.417Z,27.17
2019-02-14T07:49:44.634Z,26.47
2019-02-14T07:55:48.837Z,25.10
2019-02-14T08:01:53.145Z,25.13
2019-02-14T08:07:57.349Z,26.97
2019-02-14T08:14:01.831Z,25.07
2019-02-14T08:20:06.615Z,25.03
2019-02-14T08:26:11.258Z,25.13
2019-02-14T08:32:15.673Z,23.73
2019-02-14T08:38:19.920Z,23.73
2019-02-14T08:44:24.124Z,25.07
2019-02-14T08:50:28.417Z,22.40
2019-02-14T08:56:32.622Z,22.70
2019-02-14T09:02:36.910Z,23.63
2019-02-14T09:08:41.094Z,25.13
2019-02-14T09:14:45.481Z,24.67
2019-02-14T09:20:49.704Z,22.60
2019-02-14T09:26:54.074Z,21.63
2019-02-14T09:32:58.468Z,21.53
2019-02-14T09:39:03.176Z,20.50
2019-02-14T09:45:08.398Z,20.83
2019-02-14T09:51:12.697Z,20.50
2019-02-14T09:57:17.045Z,20.23
2019-02-14T10:03:21.357Z,16.27
2019-02-14T10:09:25.717Z,18.95
2019-02-14T10:15:29.920Z,17.57
2019-02-14T10:21:34.137Z,17.57
2019-02-14T10:27:38.341Z,18.23
2019-02-14T10:33:42.633Z,18.47
2019-02-14T10:39:46.857Z,16.33
2019-02-14T10:45:51.068Z,18.10
2019-02-14T10:51:55.271Z,17.67
2019-02-14T10:58:02.550Z,17.15
2019-02-14T11:04:06.743Z,17.62
2019-02-14T11:10:11.617Z,17.02
2019-02-14T11:16:15.915Z,16.17
2019-02-14T11:22:20.135Z,15.95
2019-02-14T11:28:24.379Z,17.62
2019-02-14T11:34:28.728Z,18.48
2019-02-14T11:40:32.987Z,16.82
2019-02-14T11:46:37.391Z,17.07
2019-02-14T11:52:41.587Z,16.32
2019-02-14T11:58:45.802Z,17.57
2019-02-14T12:04:50.080Z,17.05
2019-02-14T12:10:54.269Z,16.65
2019-02-14T12:16:58.666Z,15.20
2019-02-14T12:23:03.008Z,15.15
2019-02-14T12:29:07.238Z,14.10
2019-02-14T12:35:11.428Z,12.65
2019-02-14T12:41:15.912Z,13.38
2019-02-14T12:47:20.164Z,9.33
2019-02-14T12:53:24.486Z,12.20
2019-02-14T12:59:28.790Z,13.05
2019-02-14T13:05:33.048Z,13.10
2019-02-14T13:11:37.368Z,14.30
2019-02-14T13:17:41.734Z,11.53
2019-02-14T13:23:46.174Z,13.78
2019-02-14T13:29:50.562Z,13.05
2019-02-14T13:35:54.923Z,13.43
2019-02-14T13:41:59.160Z,13.15
2019-02-14T13:48:03.375Z,14.30
2019-02-14T13:54:07.775Z,13.20
2019-02-14T14:00:15.837Z,14.10
2019-02-14T14:06:20.193Z,14.20
2019-02-14T14:12:24.426Z,14.55
2019-02-14T14:18:28.632Z,14.28
2019-02-14T14:24:32.859Z,14.13
2019-02-14T14:30:37.069Z,13.70
2019-02-14T14:36:41.503Z,15.10
2019-02-14T14:43:07.707Z,14.55
2019-02-14T14:49:12.110Z,15.13
2019-02-14T14:55:16.430Z,14.55
2019-02-14T15:01:20.995Z,15.18
2019-02-14T15:07:25.319Z,13.95
2019-02-14T15:13:29.709Z,14.47
2019-02-14T15:19:34.111Z,14.45
2019-02-14T15:25:38.337Z,11.60
2019-02-14T15:31:42.747Z,12.05
2019-02-14T15:37:47.306Z,12.68
2019-02-14T15:43:51.648Z,13.05
2019-02-14T15:49:56.119Z,14.47
2019-02-14T15:56:00.447Z,14.13
2019-02-14T16:02:06.227Z,14.95
2019-02-14T16:08:10.807Z,15.90
2019-02-14T16:14:18.150Z,15.83
2019-02-14T16:20:21.341Z,14.30
2019-02-14T16:26:25.747Z,14.60
2019-02-14T16:32:30.070Z,14.25
2019-02-14T16:38:35.516Z,14.25
2019-02-14T16:44:40.450Z,14.63
2019-02-14T16:50:44.821Z,16.50
2019-02-14T16:56:49.132Z,20.77
2019-02-14T17:02:53.442Z,17.07
2019-02-14T17:08:58.300Z,16.40
2019-02-14T17:15:02.902Z,17.87
2019-02-14T17:21:07.176Z,15.83
2019-02-14T17:27:11.415Z,18.50
2019-02-14T17:33:15.835Z,18.45
2019-02-14T17:39:20.238Z,17.62
2019-02-14T17:45:24.732Z,19.90
2019-02-14T17:51:29.017Z,20.00
2019-02-14T17:57:33.217Z,20.00
2019-02-14T18:03:37.540Z,20.65
2019-02-14T18:09:41.787Z,22.45
2019-02-14T18:15:46.058Z,26.87
2019-02-14T18:21:50.473Z,25.43
2019-02-14T18:27:55.623Z,23.98
2019-02-14T18:33:59.965Z,26.80
2019-02-14T18:40:04.595Z,25.95
2019-02-14T18:46:08.939Z,26.45
2019-02-14T18:52:13.270Z,23.60
2019-02-14T18:58:26.109Z,22.25
2019-02-14T19:04:23.755Z,22.80
2019-02-14T19:10:28.069Z,25.23
2019-02-14T19:16:32.318Z,25.27
2019-02-14T19:22:36.609Z,23.95
2019-02-14T19:28:40.906Z,26.95
2019-02-14T19:34:45.143Z,25.02
2019-02-14T19:40:49.379Z,28.05
2019-02-14T19:46:53.730Z,23.55
2019-02-14T19:52:58.037Z,23.95
2019-02-14T19:59:02.530Z,24.87
2019-02-14T20:05:07.692Z,26.02
2019-02-14T20:11:11.985Z,24.60
2019-02-14T20:17:16.916Z,26.65
2019-02-14T20:23:21.996Z,25.92
2019-02-14T20:29:26.210Z,26.12
2019-02-14T20:35:30.426Z,24.25
2019-02-14T20:41:34.754Z,27.22
2019-02-14T20:47:39.080Z,25.92
2019-02-14T20:53:43.312Z,30.35
2019-02-14T20:59:47.536Z,29.80
2019-02-14T21:05:51.739Z,29.55
2019-02-14T21:11:56.098Z,31.80
2019-02-14T21:18:00.317Z,31.70
2019-02-14T21:24:04.684Z,31.83
2019-02-14T21:30:09.336Z,29.83
2019-02-14T21:36:13.718Z,29.77
2019-02-14T21:42:21.742Z,30.48
2019-02-14T21:48:24.017Z,30.30
2019-02-14T21:54:28.324Z,28.00
2019-02-14T22:00:32.823Z,29.27
2019-02-14T22:06:37.119Z,28.33
2019-02-14T22:12:42.969Z,27.82
2019-02-14T22:18:47.443Z,29.07
2019-02-14T22:24:51.787Z,29.70
2019-02-14T22:30:56.017Z,27.20
2019-02-14T22:37:00.251Z,26.70
2019-02-14T22:43:04.487Z,27.80
2019-02-14T22:49:08.712Z,28.83
2019-02-14T22:55:13.161Z,27.10
2019-02-14T23:01:17.642Z,28.43
2019-02-14T23:07:21.857Z,30.67
2019-02-14T23:13:26.323Z,27.90
2019-02-14T23:19:30.614Z,30.53
2019-02-14T23:25:34.930Z,30.87
2019-02-14T23:31:39.139Z,32.10
2019-02-14T23:37:43.584Z,33.10
2019-02-14T23:43:47.790Z,31.30
2019-02-14T23:49:52.031Z,30.70
2019-02-14T23:55:56.285Z,29.53
